createdAt,value
2022-11-05T00:02:24.465Z,98613.72
2022-11-05T00:05:09.601Z,98618.91
2022-11-05T00:08:09.224Z,98624.28
2022-11-05T00:10:38.126Z,98638.28
2022-11-05T00:13:27.342Z,98634.94
2022-11-05T00:16:13.103Z,98629.38
2022-11-05T00:18:39.972Z,98650.34
2022-11-05T00:21:26.762Z,98642.00
2022-11-05T00:24:11.800Z,98654.59
2022-11-05T00:26:38.585Z,98655.53
2022-11-05T00:29:05.431Z,98655.59
2022-11-05T00:31:32.663Z,98655.69
2022-11-05T00:33:59.442Z,98659.22
2022-11-05T00:36:26.234Z,98666.91
2022-11-05T00:38:53.057Z,98666.91
2022-11-05T00:41:19.833Z,98662.75
2022-11-05T00:44:05.259Z,98666.81
2022-11-05T00:46:32.187Z,98663.66
2022-11-05T00:49:17.995Z,98669.41
2022-11-05T00:51:44.778Z,98670.09
2022-11-05T00:54:11.587Z,98681.81
2022-11-05T00:56:38.390Z,98691.09
2022-11-05T00:59:05.268Z,98692.75
2022-11-05T01:01:32.100Z,98691.91
2022-11-05T01:03:58.974Z,98686.97
2022-11-05T01:06:25.755Z,98702.94
2022-11-05T01:08:52.552Z,98706.38
2022-11-05T01:11:36.933Z,98699.63
2022-11-05T01:14:11.259Z,98693.50
2022-11-05T01:16:39.525Z,98702.38
2022-11-05T01:19:09.963Z,98702.94
2022-11-05T01:21:37.377Z,98700.53
2022-11-05T01:24:04.701Z,98701.47
2022-11-05T01:26:31.565Z,98704.06
2022-11-05T01:29:01.978Z,98712.41
2022-11-05T01:31:29.140Z,98710.00
2022-11-05T01:33:56.059Z,98718.50
2022-11-05T01:36:22.831Z,98715.25
2022-11-05T01:38:49.680Z,98719.63
2022-11-05T01:41:16.439Z,98719.84
2022-11-05T01:43:54.861Z,98730.81
2022-11-05T01:46:34.115Z,98730.00
2022-11-05T01:49:15.862Z,98724.81
2022-11-05T01:51:44.713Z,98727.47
2022-11-05T01:54:16.676Z,98706.75
2022-11-05T01:57:04.817Z,98723.13
2022-11-05T01:59:43.833Z,98712.41
2022-11-05T02:02:11.065Z,98734.00
2022-11-05T02:04:50.787Z,98734.16
2022-11-05T02:07:18.693Z,98729.16
2022-11-05T02:10:02.772Z,98731.81
2022-11-05T02:12:30.825Z,98741.13
2022-11-05T02:14:58.509Z,98743.78
2022-11-05T02:18:17.687Z,98735.19
2022-11-05T02:21:15.169Z,98731.91
2022-11-05T02:24:08.180Z,98740.38
2022-11-05T02:27:01.829Z,98738.66
2022-11-05T02:30:07.696Z,98745.63
2022-11-05T02:33:10.476Z,98742.19
2022-11-05T02:36:17.276Z,98747.13
2022-11-05T02:39:47.417Z,98748.06
2022-11-05T02:42:48.609Z,98736.34
2022-11-05T02:46:06.084Z,98746.44
2022-11-05T02:49:18.012Z,98749.88
2022-11-05T02:51:58.140Z,98755.16
2022-11-05T02:54:54.971Z,98747.38
2022-11-05T02:57:22.902Z,98740.84
2022-11-05T02:59:59.501Z,98749.22
2022-11-05T03:02:26.400Z,98747.88
2022-11-05T03:04:53.390Z,98744.53
2022-11-05T03:07:44.920Z,98746.03
2022-11-05T03:10:43.292Z,98751.91
2022-11-05T03:13:21.616Z,98759.59
2022-11-05T03:16:00.214Z,98752.88
2022-11-05T03:18:59.688Z,98751.06
2022-11-05T03:21:57.964Z,98758.75
2022-11-05T03:24:30.958Z,98765.72
2022-11-05T03:27:04.935Z,98764.03
2022-11-05T03:29:47.681Z,98759.84
2022-11-05T03:32:17.468Z,98764.88
2022-11-05T03:34:52.256Z,98761.59
2022-11-05T03:37:22.591Z,98780.16
2022-11-05T03:39:54.362Z,98790.53
2022-11-05T03:42:27.090Z,98783.50
2022-11-05T03:45:00.430Z,98789.53
2022-11-05T03:47:37.291Z,98793.38
2022-11-05T03:50:18.510Z,98792.41
2022-11-05T03:53:00.789Z,98795.97
2022-11-05T03:56:01.216Z,98798.41
2022-11-05T03:58:29.633Z,98802.78
2022-11-05T04:00:59.689Z,98797.72
2022-11-05T04:03:26.485Z,98802.25
2022-11-05T04:06:14.787Z,98808.00
2022-11-05T04:08:59.875Z,98798.06
2022-11-05T04:11:45.307Z,98801.56
2022-11-05T04:14:12.216Z,98805.69
2022-11-05T04:16:57.469Z,98810.09
2022-11-05T04:19:42.713Z,98818.81
2022-11-05T04:22:27.830Z,98813.63
2022-11-05T04:24:54.684Z,98816.31
2022-11-05T04:27:21.473Z,98825.44
2022-11-05T04:30:06.888Z,98831.53
2022-11-05T04:32:33.708Z,98830.03
2022-11-05T04:35:00.511Z,98830.75
2022-11-05T04:37:27.392Z,98818.16
2022-11-05T04:39:54.232Z,98841.97
2022-11-05T04:42:21.029Z,98845.06
2022-11-05T04:44:47.820Z,98831.03
2022-11-05T04:47:14.586Z,98852.75
2022-11-05T04:49:41.394Z,98853.59
2022-11-05T04:52:08.199Z,98851.25
2022-11-05T04:54:34.962Z,98849.50
2022-11-05T04:57:01.811Z,98851.94
2022-11-05T04:59:28.591Z,98855.59
2022-11-05T05:01:55.450Z,98854.69
2022-11-05T05:04:22.351Z,98855.44
2022-11-05T05:06:49.175Z,98859.09
2022-11-05T05:09:16.073Z,98864.28
2022-11-05T05:11:42.880Z,98857.56
2022-11-05T05:14:09.710Z,98864.13
2022-11-05T05:16:36.493Z,98856.38
2022-11-05T05:19:03.309Z,98869.81
2022-11-05T05:21:38.883Z,98883.03
2022-11-05T05:24:17.014Z,98878.03
2022-11-05T05:26:47.399Z,98876.16
2022-11-05T05:29:14.382Z,98884.53
2022-11-05T05:31:41.924Z,98884.25
2022-11-05T05:34:12.652Z,98890.19
2022-11-05T05:36:39.497Z,98875.53
2022-11-05T05:39:08.323Z,98892.66
2022-11-05T05:41:35.095Z,98895.38
2022-11-05T05:44:01.882Z,98891.34
2022-11-05T05:46:28.698Z,98904.13
2022-11-05T05:48:55.567Z,98902.56
2022-11-05T05:51:22.348Z,98893.84
2022-11-05T05:53:49.957Z,98900.09
2022-11-05T05:56:19.310Z,98905.75
2022-11-05T05:58:46.783Z,98906.22
2022-11-05T06:01:19.248Z,98919.78
2022-11-05T06:03:48.306Z,98917.00
2022-11-05T06:06:19.955Z,98916.84
2022-11-05T06:08:47.601Z,98925.59
2022-11-05T06:11:14.815Z,98905.28
2022-11-05T06:13:41.618Z,98923.84
2022-11-05T06:16:10.136Z,98923.00
2022-11-05T06:18:37.643Z,98927.31
2022-11-05T06:21:09.734Z,98938.59
2022-11-05T06:23:38.852Z,98934.56
2022-11-05T06:26:10.302Z,98941.34
2022-11-05T06:28:37.694Z,98947.19
2022-11-05T06:31:05.764Z,98937.25
2022-11-05T06:33:32.566Z,98967.28
2022-11-05T06:36:04.045Z,98963.75
2022-11-05T06:38:34.071Z,98963.91
2022-11-05T06:41:07.264Z,98965.50
2022-11-05T06:43:35.873Z,98966.50
2022-11-05T06:46:03.130Z,98971.34
2022-11-05T06:48:30.142Z,98963.25
2022-11-05T06:50:57.014Z,98974.97
2022-11-05T06:53:23.919Z,98982.53
2022-11-05T06:55:50.707Z,98980.16
2022-11-05T06:58:17.552Z,98987.66
2022-11-05T07:00:44.454Z,98987.00
2022-11-05T07:03:12.665Z,98999.06
2022-11-05T07:05:48.172Z,98997.38
2022-11-05T07:08:15.518Z,99003.66
2022-11-05T07:10:42.337Z,99009.31
2022-11-05T07:13:09.387Z,99015.44
2022-11-05T07:15:37.346Z,99022.38
2022-11-05T07:18:07.503Z,99012.31
2022-11-05T07:20:35.286Z,99022.38
2022-11-05T07:23:09.889Z,99031.00
2022-11-05T07:25:37.258Z,99028.50
2022-11-05T07:28:05.077Z,99043.63
2022-11-05T07:30:33.706Z,99048.06
2022-11-05T07:33:00.938Z,99050.47
2022-11-05T07:35:28.112Z,99049.88
2022-11-05T07:37:55.728Z,99054.94
2022-11-05T07:40:25.215Z,99062.56
2022-11-05T07:42:55.191Z,99055.66
2022-11-05T07:45:22.781Z,99061.41
2022-11-05T07:48:01.562Z,99056.22
2022-11-05T07:50:32.860Z,99066.44
2022-11-05T07:53:05.259Z,99071.47
2022-11-05T07:55:32.797Z,99072.75
2022-11-05T07:57:59.683Z,99068.78
2022-11-05T08:00:28.110Z,99071.38
2022-11-05T08:03:07.758Z,99078.28
2022-11-05T08:05:38.707Z,99078.03
2022-11-05T08:08:08.156Z,99081.59
2022-11-05T08:10:36.390Z,99075.41
2022-11-05T08:13:03.334Z,99086.69
2022-11-05T08:15:30.339Z,99079.81
2022-11-05T08:18:06.359Z,99093.31
2022-11-05T08:20:34.959Z,99102.50
2022-11-05T08:23:01.937Z,99100.69
2022-11-05T08:25:28.935Z,99097.78
2022-11-05T08:28:04.583Z,99102.34
2022-11-05T08:30:32.565Z,99113.66
2022-11-05T08:33:06.436Z,99094.38
2022-11-05T08:35:35.480Z,99111.22
2022-11-05T08:38:06.118Z,99112.19
2022-11-05T08:40:35.747Z,99116.56
2022-11-05T08:43:04.847Z,99113.59
2022-11-05T08:45:32.898Z,99115.13
2022-11-05T08:48:00.934Z,99113.16
2022-11-05T08:50:28.094Z,99121.81
2022-11-05T08:52:55.084Z,99120.09
2022-11-05T08:55:22.264Z,99135.78
2022-11-05T08:57:49.045Z,99143.06
2022-11-05T09:00:16.305Z,99131.53
2022-11-05T09:02:43.143Z,99145.22
2022-11-05T09:05:10.042Z,99155.50
2022-11-05T09:07:36.856Z,99141.84
2022-11-05T09:10:03.917Z,99153.13
2022-11-05T09:12:30.694Z,99152.69
2022-11-05T09:14:57.603Z,99159.50
2022-11-05T09:17:24.489Z,99154.09
2022-11-05T09:19:51.362Z,99151.59
2022-11-05T09:22:18.231Z,99139.81
2022-11-05T09:24:45.046Z,99169.38
2022-11-05T09:27:14.485Z,99169.94
2022-11-05T09:29:42.049Z,99175.44
2022-11-05T09:32:09.467Z,99176.22
2022-11-05T09:34:36.479Z,99154.38
2022-11-05T09:37:03.746Z,99175.66
2022-11-05T09:39:30.689Z,99178.31
2022-11-05T09:42:07.761Z,99177.13
2022-11-05T09:45:09.710Z,99174.47
2022-11-05T09:47:45.506Z,99176.94
2022-11-05T09:50:23.004Z,99170.34
2022-11-05T09:52:49.944Z,99167.59
2022-11-05T09:55:42.819Z,99173.00
2022-11-05T09:58:45.669Z,99193.44
2022-11-05T10:01:21.337Z,99185.47
2022-11-05T10:03:52.997Z,99183.66
2022-11-05T10:06:25.796Z,99202.28
2022-11-05T10:09:12.193Z,99187.63
2022-11-05T10:11:48.527Z,99200.09
2022-11-05T10:14:29.407Z,99211.25
2022-11-05T10:17:22.368Z,99204.72
2022-11-05T10:20:10.325Z,99217.53
2022-11-05T10:22:38.515Z,99213.06
2022-11-05T10:25:20.801Z,99219.56
2022-11-05T10:27:58.571Z,99214.63
2022-11-05T10:30:25.394Z,99215.56
2022-11-05T10:32:56.967Z,99228.06
2022-11-05T10:35:27.239Z,99217.97
2022-11-05T10:37:54.076Z,99229.94
2022-11-05T10:41:18.790Z,99237.22
2022-11-05T10:43:51.526Z,99226.47
2022-11-05T10:46:18.200Z,99237.84
2022-11-05T10:49:05.154Z,99231.94
2022-11-05T10:51:32.911Z,99232.88
2022-11-05T10:54:13.933Z,99228.00
2022-11-05T10:56:42.398Z,99246.22
2022-11-05T10:59:26.170Z,99238.09
2022-11-05T11:02:01.380Z,99244.91
2022-11-05T11:04:36.529Z,99243.22
2022-11-05T11:07:06.432Z,99240.34
2022-11-05T11:09:36.788Z,99244.56
2022-11-05T11:12:27.427Z,99247.81
2022-11-05T11:15:14.638Z,99241.06
2022-11-05T11:17:41.808Z,99247.09
2022-11-05T11:20:30.609Z,99250.72
2022-11-05T11:23:16.743Z,99251.69
2022-11-05T11:25:52.745Z,99246.50
2022-11-05T11:28:48.217Z,99240.69
2022-11-05T11:31:21.949Z,99247.50
2022-11-05T11:33:57.507Z,99253.94
2022-11-05T11:36:41.353Z,99250.44
2022-11-05T11:39:22.427Z,99251.59
2022-11-05T11:41:54.659Z,99250.34
2022-11-05T11:44:27.287Z,99251.31
2022-11-05T11:47:01.056Z,99253.63
2022-11-05T11:49:53.476Z,99246.75
2022-11-05T11:52:31.983Z,99259.16
2022-11-05T11:55:20.755Z,99255.69
2022-11-05T11:58:05.929Z,99254.59
2022-11-05T12:00:41.906Z,99242.41
2022-11-05T12:03:58.633Z,99253.91
2022-11-05T12:06:56.393Z,99250.19
2022-11-05T12:09:52.692Z,99252.78
2022-11-05T12:12:52.578Z,99259.69
2022-11-05T12:15:51.885Z,99248.09
2022-11-05T12:18:53.734Z,99247.75
2022-11-05T12:21:58.165Z,99221.44
2022-11-05T12:25:05.502Z,99248.53
2022-11-05T12:27:41.403Z,99238.31
2022-11-05T12:30:20.573Z,99241.53
2022-11-05T12:33:23.776Z,99238.63
2022-11-05T12:36:06.866Z,99240.84
2022-11-05T12:38:52.159Z,99238.88
2022-11-05T12:41:49.460Z,99238.72
2022-11-05T12:44:53.409Z,99243.66
2022-11-05T12:47:40.135Z,99247.59
2022-11-05T12:50:35.854Z,99240.53
2022-11-05T12:53:33.272Z,99242.00
2022-11-05T12:56:23.181Z,99242.06
2022-11-05T12:59:35.575Z,99238.69
2022-11-05T13:02:20.760Z,99236.81
2022-11-05T13:04:57.819Z,99249.78
2022-11-05T13:07:32.042Z,99236.59
2022-11-05T13:10:26.195Z,99238.97
2022-11-05T13:13:23.565Z,99240.63
2022-11-05T13:16:03.754Z,99222.00
2022-11-05T13:18:43.579Z,99248.13
2022-11-05T13:21:11.594Z,99235.44
2022-11-05T13:23:47.872Z,99241.31
2022-11-05T13:26:24.876Z,99240.50
2022-11-05T13:29:05.793Z,99250.72
2022-11-05T13:31:41.328Z,99254.09
2022-11-05T13:34:12.577Z,99243.72
2022-11-05T13:37:16.521Z,99252.19
2022-11-05T13:39:55.303Z,99242.72
2022-11-05T13:42:39.995Z,99251.50
2022-11-05T13:46:08.593Z,99241.47
2022-11-05T13:48:56.130Z,99242.94
2022-11-05T13:51:57.094Z,99253.88
2022-11-05T13:54:47.726Z,99254.38
2022-11-05T13:57:54.522Z,99254.81
2022-11-05T14:00:27.260Z,99240.94
2022-11-05T14:02:59.924Z,99247.53
2022-11-05T14:05:33.057Z,99235.75
2022-11-05T14:08:08.605Z,99256.97
2022-11-05T14:10:58.164Z,99254.22
2022-11-05T14:13:38.750Z,99234.75
2022-11-05T14:16:17.720Z,99251.44
2022-11-05T14:19:13.565Z,99245.53
2022-11-05T14:21:58.376Z,99263.47
2022-11-05T14:24:39.753Z,99264.31
2022-11-05T14:27:06.442Z,99260.66
2022-11-05T14:29:53.487Z,99264.16
2022-11-05T14:32:20.154Z,99268.38
2022-11-05T14:35:00.929Z,99272.72
2022-11-05T14:37:41.677Z,99276.09
2022-11-05T14:40:42.548Z,99276.09
2022-11-05T14:43:21.490Z,99262.63
2022-11-05T14:46:08.403Z,99274.31
2022-11-05T14:49:05.157Z,99283.97
2022-11-05T14:51:45.716Z,99289.19
2022-11-05T14:54:36.889Z,99281.28
2022-11-05T14:57:03.997Z,99294.88
2022-11-05T14:59:51.126Z,99291.34
2022-11-05T15:02:23.006Z,99292.28
2022-11-05T15:04:52.698Z,99292.13
2022-11-05T15:07:22.168Z,99296.53
2022-11-05T15:10:07.237Z,99294.66
2022-11-05T15:12:37.159Z,99298.09
2022-11-05T15:15:21.274Z,99293.88
2022-11-05T15:18:16.639Z,99296.69
2022-11-05T15:20:47.005Z,99298.69
2022-11-05T15:23:21.387Z,99300.66
2022-11-05T15:26:04.771Z,99298.94
2022-11-05T15:28:46.595Z,99307.25
2022-11-05T15:31:13.317Z,99302.75
2022-11-05T15:33:47.557Z,99287.28
2022-11-05T15:36:31.363Z,99303.28
2022-11-05T15:41:46.909Z,99292.91
2022-11-05T15:44:28.476Z,99304.75
2022-11-05T15:47:16.157Z,99299.47
2022-11-05T15:49:55.747Z,99292.91
2022-11-05T15:52:34.623Z,99301.16
2022-11-05T15:55:12.218Z,99308.09
2022-11-05T15:57:49.397Z,99304.75
2022-11-05T16:00:27.739Z,99309.09
2022-11-05T16:03:00.908Z,99306.94
2022-11-05T16:05:32.625Z,99309.94
2022-11-05T16:08:01.371Z,99315.06
2022-11-05T16:10:37.211Z,99307.38
2022-11-05T16:13:39.584Z,99317.66
2022-11-05T16:16:24.896Z,99321.22
2022-11-05T16:18:52.736Z,99308.47
2022-11-05T16:21:23.128Z,99323.03
2022-11-05T16:23:49.921Z,99330.91
2022-11-05T16:29:40.595Z,99328.78
2022-11-05T16:32:28.549Z,99328.47
2022-11-05T16:35:03.438Z,99324.41
2022-11-05T16:37:45.219Z,99334.59
2022-11-05T16:40:20.795Z,99318.44
2022-11-05T16:42:51.280Z,99331.06
2022-11-05T16:45:22.995Z,99341.59
2022-11-05T16:47:50.657Z,99339.91
2022-11-05T16:50:31.260Z,99338.38
2022-11-05T16:52:58.325Z,99346.28
2022-11-05T16:55:25.142Z,99347.06
2022-11-05T16:57:54.685Z,99360.03
2022-11-05T17:00:23.108Z,99358.22
2022-11-05T17:02:51.001Z,99352.31
2022-11-05T17:05:19.456Z,99357.44
2022-11-05T17:07:47.067Z,99359.16
2022-11-05T17:10:14.606Z,99360.03
2022-11-05T17:12:42.816Z,99366.31
2022-11-05T17:15:30.932Z,99364.91
2022-11-05T17:17:59.333Z,99364.06
2022-11-05T17:20:42.833Z,99362.09
2022-11-05T17:23:13.756Z,99359.34
2022-11-05T17:25:44.019Z,99357.91
2022-11-05T17:28:11.371Z,99353.13
2022-11-05T17:30:41.707Z,99361.13
2022-11-05T17:33:12.817Z,99358.59
2022-11-05T17:35:40.899Z,99361.81
2022-11-05T17:38:08.884Z,99366.16
2022-11-05T17:40:37.041Z,99370.03
2022-11-05T17:43:04.787Z,99378.78
2022-11-05T17:45:32.076Z,99371.47
2022-11-05T17:47:59.080Z,99361.25
2022-11-05T17:50:25.942Z,99370.44
2022-11-05T17:52:52.784Z,99380.88
2022-11-05T17:55:19.650Z,99360.13
2022-11-05T17:57:52.243Z,99379.69
2022-11-05T18:00:26.160Z,99395.31
2022-11-05T18:02:55.146Z,99396.44
2022-11-05T18:05:25.602Z,99397.47
2022-11-05T18:07:55.679Z,99407.75
2022-11-05T18:10:24.389Z,99405.75
2022-11-05T18:12:53.118Z,99410.13
2022-11-05T18:15:23.910Z,99416.38
2022-11-05T18:17:52.412Z,99410.50
2022-11-05T18:20:20.334Z,99421.69
2022-11-05T18:22:50.339Z,99414.63
2022-11-05T18:25:18.263Z,99425.69
2022-11-05T18:27:45.327Z,99429.38
2022-11-05T18:30:15.349Z,99428.56
2022-11-05T18:32:43.929Z,99437.16
2022-11-05T18:35:11.490Z,99418.28
2022-11-05T18:37:39.063Z,99436.94
2022-11-05T18:40:07.782Z,99432.88
2022-11-05T18:42:34.621Z,99432.09
2022-11-05T18:45:01.440Z,99424.81
2022-11-05T18:47:28.207Z,99430.06
2022-11-05T18:49:55.101Z,99432.78
2022-11-05T18:52:21.993Z,99436.19
2022-11-05T18:54:48.809Z,99416.81
2022-11-05T18:57:15.868Z,99426.25
2022-11-05T18:59:46.596Z,99425.50
2022-11-05T19:02:14.558Z,99429.25
2022-11-05T19:05:00.307Z,99429.47
2022-11-05T19:07:29.243Z,99420.88
2022-11-05T19:09:56.191Z,99428.06
2022-11-05T19:12:23.064Z,99431.72
2022-11-05T19:14:49.978Z,99419.66
2022-11-05T19:17:16.869Z,99423.31
2022-11-05T19:19:43.691Z,99412.25
2022-11-05T19:22:10.678Z,99418.56
2022-11-05T19:24:37.489Z,99402.66
2022-11-05T19:27:04.432Z,99416.25
2022-11-05T19:29:31.314Z,99422.16
2022-11-05T19:31:58.134Z,99419.63
2022-11-05T19:34:25.022Z,99412.34
2022-11-05T19:36:51.895Z,99418.59
2022-11-05T19:39:18.740Z,99425.44
2022-11-05T19:41:45.618Z,99426.38
2022-11-05T19:44:12.426Z,99421.66
2022-11-05T19:46:39.212Z,99420.72
2022-11-05T19:49:06.015Z,99430.88
2022-11-05T19:51:33.311Z,99434.56
2022-11-05T19:54:02.073Z,99433.78
2022-11-05T19:56:32.819Z,99430.63
2022-11-05T19:59:00.603Z,99426.41
2022-11-05T20:01:31.160Z,99430.84
2022-11-05T20:03:58.878Z,99437.09
2022-11-05T20:06:35.140Z,99445.66
2022-11-05T20:09:22.716Z,99444.91
2022-11-05T20:11:54.385Z,99446.69
2022-11-05T20:14:22.311Z,99428.13
2022-11-05T20:16:49.498Z,99440.84
2022-11-05T20:19:20.132Z,99451.19
2022-11-05T20:21:47.289Z,99455.44
2022-11-05T20:24:23.668Z,99443.75
2022-11-05T20:26:55.798Z,99461.66
2022-11-05T20:29:23.978Z,99459.03
2022-11-05T20:31:52.522Z,99466.00
2022-11-05T20:34:19.375Z,99445.81
2022-11-05T20:36:46.219Z,99460.97
2022-11-05T20:39:13.087Z,99437.47
2022-11-05T20:41:39.986Z,99448.41
2022-11-05T20:44:06.847Z,99458.00
2022-11-05T20:46:33.784Z,99470.69
2022-11-05T20:49:00.638Z,99463.84
2022-11-05T20:51:27.538Z,99472.47
2022-11-05T20:53:57.332Z,99466.38
2022-11-05T20:56:31.707Z,99475.84
2022-11-05T20:59:00.051Z,99467.31
2022-11-05T21:01:30.497Z,99462.41
2022-11-05T21:03:57.814Z,99465.06
2022-11-05T21:06:24.597Z,99439.53
2022-11-05T21:08:52.648Z,99464.38
2022-11-05T21:11:20.391Z,99465.13
2022-11-05T21:13:47.891Z,99476.47
2022-11-05T21:16:18.579Z,99476.47
2022-11-05T21:18:47.207Z,99476.56
2022-11-05T21:21:19.950Z,99479.88
2022-11-05T21:23:47.340Z,99471.31
2022-11-05T21:26:16.732Z,99469.53
2022-11-05T21:28:43.638Z,99474.69
2022-11-05T21:31:11.082Z,99460.34
2022-11-05T21:33:38.196Z,99467.09
2022-11-05T21:36:11.649Z,99468.81
2022-11-05T21:38:39.479Z,99454.50
2022-11-05T21:41:08.303Z,99479.19
2022-11-05T21:43:35.321Z,99475.78
2022-11-05T21:46:04.168Z,99471.50
2022-11-05T21:48:31.841Z,99465.69
2022-11-05T21:51:16.989Z,99450.44
2022-11-05T21:54:02.565Z,99465.69
2022-11-05T21:56:47.768Z,99459.78
2022-11-05T21:59:41.986Z,99461.56
2022-11-05T22:02:11.923Z,99469.94
2022-11-05T22:04:42.904Z,99466.66
2022-11-05T22:07:13.718Z,99461.28
2022-11-05T22:09:41.976Z,99455.59
2022-11-05T22:12:09.326Z,99456.47
2022-11-05T22:14:36.720Z,99452.50
2022-11-05T22:17:04.410Z,99467.69
2022-11-05T22:19:31.586Z,99460.94
2022-11-05T22:21:58.462Z,99471.25
2022-11-05T22:24:27.937Z,99468.63
2022-11-05T22:26:54.785Z,99455.78
2022-11-05T22:29:21.575Z,99471.16
2022-11-05T22:31:48.553Z,99456.91
2022-11-05T22:34:15.337Z,99450.94
2022-11-05T22:36:42.308Z,99456.63
2022-11-05T22:39:10.761Z,99467.06
2022-11-05T22:41:37.736Z,99445.84
2022-11-05T22:44:04.909Z,99459.53
2022-11-05T22:46:35.158Z,99434.88
2022-11-05T22:49:04.786Z,99458.69
2022-11-05T22:51:35.177Z,99446.88
2022-11-05T22:54:02.715Z,99445.19
2022-11-05T22:56:33.342Z,99450.47
2022-11-05T22:59:00.617Z,99444.66
2022-11-05T23:01:28.394Z,99452.25
2022-11-05T23:03:57.270Z,99438.53
2022-11-05T23:06:48.991Z,99448.84
2022-11-05T23:09:37.782Z,99445.47
2022-11-05T23:12:27.627Z,99440.38
2022-11-05T23:14:56.702Z,99439.66
2022-11-05T23:17:43.470Z,99434.56
2022-11-05T23:20:40.192Z,99435.47
2022-11-05T23:23:29.997Z,99412.56
2022-11-05T23:25:58.747Z,99424.34
2022-11-05T23:28:26.377Z,99432.13
2022-11-05T23:31:11.564Z,99414.25
2022-11-05T23:33:38.356Z,99428.88
2022-11-05T23:36:24.286Z,99435.75
2022-11-05T23:38:54.361Z,99441.78
2022-11-05T23:41:39.835Z,99434.88
2022-11-05T23:44:27.269Z,99420.66
2022-11-05T23:47:12.739Z,99433.13
2022-11-05T23:49:39.533Z,99426.28
2022-11-05T23:52:06.342Z,99417.09
2022-11-05T23:54:33.137Z,99414.50
2022-11-05T23:56:59.912Z,99413.59
2022-11-05T23:59:26.686Z,99404.19
